sensor_id;sensor_type;location;lat;lon;timestamp;pressure;altitude;pressure_sealevel;temperature;humidity
63321;BME280;49449;48.800;9.534;2022-12-24T00:01:18;98007.03;;;10.38;46.43
63321;BME280;49449;48.800;9.534;2022-12-24T00:03:46;97995.91;;;10.36;46.39
63321;BME280;49449;48.800;9.534;2022-12-24T00:06:17;98007.19;;;10.48;46.23
63321;BME280;49449;48.800;9.534;2022-12-24T00:08:46;98000.38;;;10.52;45.75
63321;BME280;49449;48.800;9.534;2022-12-24T00:11:15;98006.94;;;10.33;45.81
63321;BME280;49449;48.800;9.534;2022-12-24T00:13:43;98009.16;;;10.24;45.91
63321;BME280;49449;48.800;9.534;2022-12-24T00:16:10;98008.78;;;10.32;45.75
63321;BME280;49449;48.800;9.534;2022-12-24T00:18:38;98009.59;;;9.75;46.04
63321;BME280;49449;48.800;9.534;2022-12-24T00:21:10;98009.72;;;10.09;45.84
63321;BME280;49449;48.800;9.534;2022-12-24T00:23:39;98000.91;;;10.20;45.32
63321;BME280;49449;48.800;9.534;2022-12-24T00:26:06;98002.06;;;10.41;45.52
63321;BME280;49449;48.800;9.534;2022-12-24T00:28:36;98014.78;;;10.44;44.83
63321;BME280;49449;48.800;9.534;2022-12-24T00:31:08;98024.16;;;10.52;44.77
63321;BME280;49449;48.800;9.534;2022-12-24T00:33:36;98024.34;;;10.46;45.09
63321;BME280;49449;48.800;9.534;2022-12-24T00:36:05;98006.69;;;10.34;44.97
63321;BME280;49449;48.800;9.534;2022-12-24T00:38:33;98028.47;;;9.96;45.78
63321;BME280;49449;48.800;9.534;2022-12-24T00:41:02;98021.69;;;9.59;46.41
63321;BME280;49449;48.800;9.534;2022-12-24T00:43:31;98030.88;;;9.97;45.75
63321;BME280;49449;48.800;9.534;2022-12-24T00:46:00;98032.53;;;9.86;45.87
63321;BME280;49449;48.800;9.534;2022-12-24T00:48:28;98033.09;;;9.77;45.77
63321;BME280;49449;48.800;9.534;2022-12-24T00:50:55;98034.50;;;9.67;46.04
63321;BME280;49449;48.800;9.534;2022-12-24T00:53:23;98041.88;;;9.54;46.09
63321;BME280;49449;48.800;9.534;2022-12-24T00:55:51;98030.38;;;9.72;45.72
63321;BME280;49449;48.800;9.534;2022-12-24T00:58:18;98046.38;;;9.94;45.45
63321;BME280;49449;48.800;9.534;2022-12-24T01:00:46;98031.59;;;9.28;46.59
63321;BME280;49449;48.800;9.534;2022-12-24T01:03:15;98039.63;;;9.74;45.64
63321;BME280;49449;48.800;9.534;2022-12-24T01:05:43;98049.03;;;9.82;45.56
63321;BME280;49449;48.800;9.534;2022-12-24T01:08:10;98055.47;;;9.86;45.11
63321;BME280;49449;48.800;9.534;2022-12-24T01:10:37;98064.81;;;10.05;44.80
63321;BME280;49449;48.800;9.534;2022-12-24T01:13:05;98066.41;;;9.54;45.00
63321;BME280;49449;48.800;9.534;2022-12-24T01:15:33;98079.16;;;9.45;45.86
63321;BME280;49449;48.800;9.534;2022-12-24T01:18:00;98065.44;;;9.72;45.22
63321;BME280;49449;48.800;9.534;2022-12-24T01:20:30;98077.84;;;9.72;45.06
63321;BME280;49449;48.800;9.534;2022-12-24T01:22:58;98076.13;;;9.89;44.76
63321;BME280;49449;48.800;9.534;2022-12-24T01:25:26;98078.53;;;9.91;45.00
63321;BME280;49449;48.800;9.534;2022-12-24T01:27:54;98082.09;;;9.84;45.02
63321;BME280;49449;48.800;9.534;2022-12-24T01:30:22;98090.59;;;9.63;44.77
63321;BME280;49449;48.800;9.534;2022-12-24T01:32:50;98089.88;;;9.79;44.85
63321;BME280;49449;48.800;9.534;2022-12-24T01:35:17;98122.81;;;9.53;45.59
63321;BME280;49449;48.800;9.534;2022-12-24T01:37:46;98123.88;;;9.52;46.28
63321;BME280;49449;48.800;9.534;2022-12-24T01:40:16;98127.16;;;9.71;46.57
63321;BME280;49449;48.800;9.534;2022-12-24T01:43:01;98122.31;;;10.03;45.93
63321;BME280;49449;48.800;9.534;2022-12-24T01:45:50;98128.25;;;10.11;46.25
63321;BME280;49449;48.800;9.534;2022-12-24T01:48:22;98119.97;;;10.19;46.16
63321;BME280;49449;48.800;9.534;2022-12-24T01:50:54;98138.19;;;10.20;46.77
63321;BME280;49449;48.800;9.534;2022-12-24T01:53:25;98149.69;;;10.26;47.00
63321;BME280;49449;48.800;9.534;2022-12-24T01:55:54;98164.56;;;10.32;46.83
63321;BME280;49449;48.800;9.534;2022-12-24T01:58:23;98193.84;;;10.31;47.25
63321;BME280;49449;48.800;9.534;2022-12-24T02:00:52;98191.88;;;10.38;47.74
63321;BME280;49449;48.800;9.534;2022-12-24T02:03:20;98209.22;;;10.46;47.60
63321;BME280;49449;48.800;9.534;2022-12-24T02:05:50;98209.31;;;10.51;47.57
63321;BME280;49449;48.800;9.534;2022-12-24T02:08:18;98208.78;;;10.37;47.66
63321;BME280;49449;48.800;9.534;2022-12-24T02:10:49;98212.56;;;10.29;48.11
63321;BME280;49449;48.800;9.534;2022-12-24T02:13:19;98228.03;;;10.37;47.68
63321;BME280;49449;48.800;9.534;2022-12-24T02:15:55;98217.94;;;10.34;48.09
63321;BME280;49449;48.800;9.534;2022-12-24T02:18:33;98218.56;;;10.24;48.35
63321;BME280;49449;48.800;9.534;2022-12-24T02:21:27;98234.16;;;10.26;48.47
63321;BME280;49449;48.800;9.534;2022-12-24T02:24:20;98219.69;;;10.29;48.35
63321;BME280;49449;48.800;9.534;2022-12-24T02:30:11;98240.59;;;10.30;48.72
63321;BME280;49449;48.800;9.534;2022-12-24T02:33:01;98228.56;;;10.22;48.53
63321;BME280;49449;48.800;9.534;2022-12-24T02:35:38;98233.34;;;10.25;48.28
63321;BME280;49449;48.800;9.534;2022-12-24T02:38:13;98218.31;;;10.26;48.46
63321;BME280;49449;48.800;9.534;2022-12-24T02:40:47;98235.19;;;10.25;48.34
63321;BME280;49449;48.800;9.534;2022-12-24T02:43:19;98221.88;;;10.20;48.40
63321;BME280;49449;48.800;9.534;2022-12-24T02:45:54;98225.66;;;10.24;48.47
63321;BME280;49449;48.800;9.534;2022-12-24T02:48:25;98226.25;;;10.26;48.58
63321;BME280;49449;48.800;9.534;2022-12-24T02:50:56;98239.19;;;10.28;48.60
63321;BME280;49449;48.800;9.534;2022-12-24T02:53:24;98240.00;;;10.28;48.49
63321;BME280;49449;48.800;9.534;2022-12-24T02:56:18;98246.78;;;10.24;48.74
63321;BME280;49449;48.800;9.534;2022-12-24T02:59:01;98249.19;;;10.25;48.46
63321;BME280;49449;48.800;9.534;2022-12-24T03:01:44;98262.28;;;10.20;48.45
63321;BME280;49449;48.800;9.534;2022-12-24T03:04:21;98257.03;;;10.09;48.63
63321;BME280;49449;48.800;9.534;2022-12-24T03:07:09;98257.81;;;9.97;49.16
63321;BME280;49449;48.800;9.534;2022-12-24T03:09:54;98255.31;;;9.91;49.13
63321;BME280;49449;48.800;9.534;2022-12-24T03:12:27;98257.13;;;9.90;49.07
63321;BME280;49449;48.800;9.534;2022-12-24T03:14:57;98251.06;;;9.90;49.08
63321;BME280;49449;48.800;9.534;2022-12-24T03:17:27;98260.81;;;9.89;48.99
63321;BME280;49449;48.800;9.534;2022-12-24T03:19:54;98266.22;;;9.94;48.95
63321;BME280;49449;48.800;9.534;2022-12-24T03:22:24;98267.34;;;9.98;48.75
63321;BME280;49449;48.800;9.534;2022-12-24T03:24:52;98271.94;;;9.91;48.55
63321;BME280;49449;48.800;9.534;2022-12-24T03:27:20;98256.22;;;9.96;48.36
63321;BME280;49449;48.800;9.534;2022-12-24T03:29:49;98258.97;;;9.90;48.66
63321;BME280;49449;48.800;9.534;2022-12-24T03:32:23;98276.94;;;9.69;48.95
63321;BME280;49449;48.800;9.534;2022-12-24T03:34:52;98284.38;;;9.60;49.16
63321;BME280;49449;48.800;9.534;2022-12-24T03:37:20;98277.50;;;9.47;49.53
63321;BME280;49449;48.800;9.534;2022-12-24T03:39:48;98266.03;;;9.54;49.43
63321;BME280;49449;48.800;9.534;2022-12-24T03:42:15;98267.44;;;9.68;49.11
63321;BME280;49449;48.800;9.534;2022-12-24T03:44:43;98269.38;;;9.73;49.22
63321;BME280;49449;48.800;9.534;2022-12-24T03:47:11;98272.69;;;9.80;49.10
63321;BME280;49449;48.800;9.534;2022-12-24T03:49:39;98281.34;;;9.87;49.01
63321;BME280;49449;48.800;9.534;2022-12-24T03:52:08;98297.06;;;9.94;49.00
63321;BME280;49449;48.800;9.534;2022-12-24T03:54:35;98300.53;;;9.94;48.73
63321;BME280;49449;48.800;9.534;2022-12-24T03:57:03;98297.16;;;9.87;48.84
63321;BME280;49449;48.800;9.534;2022-12-24T03:59:31;98298.34;;;9.91;48.78
63321;BME280;49449;48.800;9.534;2022-12-24T04:01:59;98291.78;;;9.94;48.82
63321;BME280;49449;48.800;9.534;2022-12-24T04:04:26;98283.75;;;9.89;48.96
63321;BME280;49449;48.800;9.534;2022-12-24T04:06:54;98293.34;;;9.83;48.83
63321;BME280;49449;48.800;9.534;2022-12-24T04:09:24;98284.19;;;9.74;49.07
63321;BME280;49449;48.800;9.534;2022-12-24T04:11:51;98286.16;;;9.78;49.14
63321;BME280;49449;48.800;9.534;2022-12-24T04:14:19;98283.59;;;9.60;49.41
63321;BME280;49449;48.800;9.534;2022-12-24T04:16:47;98277.38;;;9.54;49.60
63321;BME280;49449;48.800;9.534;2022-12-24T04:19:15;98293.47;;;9.64;49.14
63321;BME280;49449;48.800;9.534;2022-12-24T04:21:42;98302.19;;;9.65;49.54
63321;BME280;49449;48.800;9.534;2022-12-24T04:24:10;98293.94;;;9.73;49.31
63321;BME280;49449;48.800;9.534;2022-12-24T04:26:39;98298.75;;;9.76;49.20
63321;BME280;49449;48.800;9.534;2022-12-24T04:29:07;98299.09;;;9.68;49.48
63321;BME280;49449;48.800;9.534;2022-12-24T04:31:34;98303.84;;;9.47;49.77
63321;BME280;49449;48.800;9.534;2022-12-24T04:34:02;98299.84;;;9.57;49.72
63321;BME280;49449;48.800;9.534;2022-12-24T04:36:30;98298.53;;;9.66;49.76
63321;BME280;49449;48.800;9.534;2022-12-24T04:38:58;98299.09;;;9.68;50.21
63321;BME280;49449;48.800;9.534;2022-12-24T04:41:26;98297.16;;;9.75;49.92
63321;BME280;49449;48.800;9.534;2022-12-24T04:43:55;98299.91;;;9.80;49.80
63321;BME280;49449;48.800;9.534;2022-12-24T04:46:24;98305.09;;;9.87;49.48
63321;BME280;49449;48.800;9.534;2022-12-24T04:48:53;98303.34;;;9.81;49.42
63321;BME280;49449;48.800;9.534;2022-12-24T04:51:21;98308.06;;;9.79;49.65
63321;BME280;49449;48.800;9.534;2022-12-24T04:53:50;98325.03;;;9.83;49.39
63321;BME280;49449;48.800;9.534;2022-12-24T04:56:19;98316.75;;;9.79;49.49
63321;BME280;49449;48.800;9.534;2022-12-24T04:58:48;98314.56;;;9.76;49.37
63321;BME280;49449;48.800;9.534;2022-12-24T05:01:20;98314.97;;;9.49;49.85
63321;BME280;49449;48.800;9.534;2022-12-24T05:03:48;98320.81;;;9.40;50.01
63321;BME280;49449;48.800;9.534;2022-12-24T05:06:18;98325.81;;;9.29;50.15
63321;BME280;49449;48.800;9.534;2022-12-24T05:08:46;98316.19;;;9.35;50.02
63321;BME280;49449;48.800;9.534;2022-12-24T05:11:14;98325.94;;;9.35;50.09
63321;BME280;49449;48.800;9.534;2022-12-24T05:13:42;98331.59;;;9.08;50.75
63321;BME280;49449;48.800;9.534;2022-12-24T05:16:12;98320.81;;;9.09;50.98
63321;BME280;49449;48.800;9.534;2022-12-24T05:18:42;98322.81;;;8.96;51.19
63321;BME280;49449;48.800;9.534;2022-12-24T05:21:12;98295.56;;;9.02;51.12
63321;BME280;49449;48.800;9.534;2022-12-24T05:23:41;98317.38;;;9.09;50.99
63321;BME280;49449;48.800;9.534;2022-12-24T05:26:29;98323.13;;;9.18;50.86
63321;BME280;49449;48.800;9.534;2022-12-24T05:28:59;98320.53;;;9.29;50.34
63321;BME280;49449;48.800;9.534;2022-12-24T05:31:29;98313.00;;;9.33;50.25
63321;BME280;49449;48.800;9.534;2022-12-24T05:34:00;98318.72;;;9.30;50.42
63321;BME280;49449;48.800;9.534;2022-12-24T05:36:28;98328.38;;;9.36;50.39
63321;BME280;49449;48.800;9.534;2022-12-24T05:38:57;98325.03;;;9.41;50.25
63321;BME280;49449;48.800;9.534;2022-12-24T05:41:25;98331.03;;;9.48;50.01
63321;BME280;49449;48.800;9.534;2022-12-24T05:43:53;98331.38;;;9.52;49.88
63321;BME280;49449;48.800;9.534;2022-12-24T05:46:22;98334.84;;;9.52;49.82
63321;BME280;49449;48.800;9.534;2022-12-24T05:48:52;98342.03;;;9.45;49.86
63321;BME280;49449;48.800;9.534;2022-12-24T05:51:22;98336.16;;;9.43;49.74
63321;BME280;49449;48.800;9.534;2022-12-24T05:53:50;98322.38;;;9.29;49.85
63321;BME280;49449;48.800;9.534;2022-12-24T05:56:21;98324.97;;;9.17;50.15
63321;BME280;49449;48.800;9.534;2022-12-24T05:58:49;98323.19;;;8.99;50.44
63321;BME280;49449;48.800;9.534;2022-12-24T06:01:18;98324.94;;;8.87;50.80
63321;BME280;49449;48.800;9.534;2022-12-24T06:03:45;98328.00;;;9.02;50.43
63321;BME280;49449;48.800;9.534;2022-12-24T06:06:17;98347.06;;;9.16;50.14
63321;BME280;49449;48.800;9.534;2022-12-24T06:08:47;98345.25;;;9.17;49.97
63321;BME280;49449;48.800;9.534;2022-12-24T06:11:17;98343.78;;;9.21;49.79
63321;BME280;49449;48.800;9.534;2022-12-24T06:13:45;98337.50;;;9.22;49.67
63321;BME280;49449;48.800;9.534;2022-12-24T06:16:14;98346.63;;;9.19;49.69
63321;BME280;49449;48.800;9.534;2022-12-24T06:18:43;98357.53;;;9.23;49.62
63321;BME280;49449;48.800;9.534;2022-12-24T06:21:11;98348.97;;;9.27;49.44
63321;BME280;49449;48.800;9.534;2022-12-24T06:23:41;98350.56;;;9.28;49.34
63321;BME280;49449;48.800;9.534;2022-12-24T06:26:12;98353.75;;;9.19;49.67
63321;BME280;49449;48.800;9.534;2022-12-24T06:28:40;98355.13;;;9.21;49.20
63321;BME280;49449;48.800;9.534;2022-12-24T06:31:11;98359.16;;;9.24;49.12
63321;BME280;49449;48.800;9.534;2022-12-24T06:33:39;98362.66;;;9.18;49.23
63321;BME280;49449;48.800;9.534;2022-12-24T06:36:09;98358.66;;;9.15;49.26
63321;BME280;49449;48.800;9.534;2022-12-24T06:38:40;98356.25;;;9.14;49.23
63321;BME280;49449;48.800;9.534;2022-12-24T06:41:08;98359.03;;;9.19;49.21
63321;BME280;49449;48.800;9.534;2022-12-24T06:43:37;98365.44;;;9.23;48.86
63321;BME280;49449;48.800;9.534;2022-12-24T06:46:05;98369.13;;;9.22;48.79
63321;BME280;49449;48.800;9.534;2022-12-24T06:48:33;98369.13;;;9.22;48.95
63321;BME280;49449;48.800;9.534;2022-12-24T06:51:01;98374.97;;;9.24;49.18
63321;BME280;49449;48.800;9.534;2022-12-24T06:53:29;98380.31;;;9.17;49.04
63321;BME280;49449;48.800;9.534;2022-12-24T06:56:01;98394.09;;;9.19;49.05
63321;BME280;49449;48.800;9.534;2022-12-24T06:58:30;98397.50;;;9.20;48.92
63321;BME280;49449;48.800;9.534;2022-12-24T07:00:59;98396.72;;;9.19;48.86
63321;BME280;49449;48.800;9.534;2022-12-24T07:03:28;98397.72;;;9.18;48.79
63321;BME280;49449;48.800;9.534;2022-12-24T07:05:55;98403.63;;;9.20;48.58
63321;BME280;49449;48.800;9.534;2022-12-24T07:08:23;98416.56;;;9.22;48.63
63321;BME280;49449;48.800;9.534;2022-12-24T07:10:51;98416.56;;;9.22;48.70
63321;BME280;49449;48.800;9.534;2022-12-24T07:13:20;98415.53;;;9.23;48.66
63321;BME280;49449;48.800;9.534;2022-12-24T07:15:56;98413.31;;;9.20;48.32
63321;BME280;49449;48.800;9.534;2022-12-24T07:18:26;98406.31;;;9.14;48.59
63321;BME280;49449;48.800;9.534;2022-12-24T07:20:53;98413.31;;;9.20;48.38
63321;BME280;49449;48.800;9.534;2022-12-24T07:23:21;98418.25;;;9.16;48.52
63321;BME280;49449;48.800;9.534;2022-12-24T07:25:49;98418.59;;;9.20;48.30
63321;BME280;49449;48.800;9.534;2022-12-24T07:28:17;98430.78;;;9.21;48.38
63321;BME280;49449;48.800;9.534;2022-12-24T07:30:47;98430.78;;;9.21;48.14
63321;BME280;49449;48.800;9.534;2022-12-24T07:33:15;98426.66;;;9.25;48.23
63321;BME280;49449;48.800;9.534;2022-12-24T07:35:44;98436.69;;;9.16;47.82
63321;BME280;49449;48.800;9.534;2022-12-24T07:38:15;98443.38;;;9.19;47.98
63321;BME280;49449;48.800;9.534;2022-12-24T07:40:42;98446.50;;;9.27;48.19
63321;BME280;49449;48.800;9.534;2022-12-24T07:43:10;98450.09;;;9.33;48.31
63321;BME280;49449;48.800;9.534;2022-12-24T07:45:38;98453.88;;;9.37;48.54
63321;BME280;49449;48.800;9.534;2022-12-24T07:48:06;98456.66;;;9.42;48.35
63321;BME280;49449;48.800;9.534;2022-12-24T07:50:33;98453.59;;;9.45;48.33
63321;BME280;49449;48.800;9.534;2022-12-24T07:53:02;98457.25;;;9.44;48.06
63321;BME280;49449;48.800;9.534;2022-12-24T07:55:30;98464.13;;;9.45;48.28
63321;BME280;49449;48.800;9.534;2022-12-24T07:57:58;98462.88;;;9.48;48.09
63321;BME280;49449;48.800;9.534;2022-12-24T08:00:26;98462.22;;;9.53;47.85
63321;BME280;49449;48.800;9.534;2022-12-24T08:02:53;98468.88;;;9.55;47.82
63321;BME280;49449;48.800;9.534;2022-12-24T08:05:21;98464.44;;;9.56;47.65
63321;BME280;49449;48.800;9.534;2022-12-24T08:07:49;98469.00;;;9.60;47.69
63321;BME280;49449;48.800;9.534;2022-12-24T08:10:18;98456.19;;;9.64;47.51
63321;BME280;49449;48.800;9.534;2022-12-24T08:12:45;98464.34;;;9.62;47.48
63321;BME280;49449;48.800;9.534;2022-12-24T08:15:13;98464.69;;;9.66;47.56
63321;BME280;49449;48.800;9.534;2022-12-24T08:17:41;98468.34;;;9.65;47.36
63321;BME280;49449;48.800;9.534;2022-12-24T08:20:10;98486.38;;;9.68;47.49
63321;BME280;49449;48.800;9.534;2022-12-24T08:22:37;98475.63;;;9.70;47.40
63321;BME280;49449;48.800;9.534;2022-12-24T08:25:06;98477.22;;;9.71;47.55
63321;BME280;49449;48.800;9.534;2022-12-24T08:27:35;98484.19;;;9.65;47.57
63321;BME280;49449;48.800;9.534;2022-12-24T08:30:04;98482.13;;;9.67;47.66
63321;BME280;49449;48.800;9.534;2022-12-24T08:32:33;98489.81;;;9.68;47.36
63321;BME280;49449;48.800;9.534;2022-12-24T08:35:00;98495.00;;;9.75;47.64
63321;BME280;49449;48.800;9.534;2022-12-24T08:37:28;98496.75;;;9.81;47.53
63321;BME280;49449;48.800;9.534;2022-12-24T08:39:56;98508.06;;;9.89;47.31
63321;BME280;49449;48.800;9.534;2022-12-24T08:42:23;98512.31;;;9.90;47.47
63321;BME280;49449;48.800;9.534;2022-12-24T08:44:53;98522.44;;;9.93;47.49
63321;BME280;49449;48.800;9.534;2022-12-24T08:47:20;98513.19;;;9.83;47.75
63321;BME280;49449;48.800;9.534;2022-12-24T08:49:49;98512.97;;;9.85;47.59
63321;BME280;49449;48.800;9.534;2022-12-24T08:52:17;98518.25;;;9.85;47.76
63321;BME280;49449;48.800;9.534;2022-12-24T08:54:45;98527.56;;;9.88;47.74
63321;BME280;49449;48.800;9.534;2022-12-24T08:57:12;98530.44;;;9.86;48.36
63321;BME280;49449;48.800;9.534;2022-12-24T08:59:40;98525.88;;;9.75;47.89
63321;BME280;49449;48.800;9.534;2022-12-24T09:02:09;98537.16;;;9.82;47.64
63321;BME280;49449;48.800;9.534;2022-12-24T09:04:37;98538.69;;;9.90;47.88
63321;BME280;49449;48.800;9.534;2022-12-24T09:07:06;98535.63;;;9.93;48.67
63321;BME280;49449;48.800;9.534;2022-12-24T09:09:34;98534.38;;;9.77;46.41
63321;BME280;49449;48.800;9.534;2022-12-24T09:12:04;98537.38;;;9.80;47.47
63321;BME280;49449;48.800;9.534;2022-12-24T09:14:33;98528.59;;;9.86;47.77
63321;BME280;49449;48.800;9.534;2022-12-24T09:17:00;98534.44;;;9.89;46.91
63321;BME280;49449;48.800;9.534;2022-12-24T09:19:30;98538.25;;;9.93;46.57
63321;BME280;49449;48.800;9.534;2022-12-24T09:21:57;98536.69;;;10.34;44.99
63321;BME280;49449;48.800;9.534;2022-12-24T09:24:25;98549.22;;;10.38;45.03
63321;BME280;49449;48.800;9.534;2022-12-24T09:26:53;98548.50;;;10.43;43.80
63321;BME280;49449;48.800;9.534;2022-12-24T09:29:23;98554.38;;;10.03;44.05
63321;BME280;49449;48.800;9.534;2022-12-24T09:31:50;98558.91;;;9.96;44.52
63321;BME280;49449;48.800;9.534;2022-12-24T09:34:20;98553.84;;;9.76;43.72
63321;BME280;49449;48.800;9.534;2022-12-24T09:36:53;98553.94;;;9.88;44.28
63321;BME280;49449;48.800;9.534;2022-12-24T09:39:21;98553.06;;;9.94;43.90
63321;BME280;49449;48.800;9.534;2022-12-24T09:41:57;98554.09;;;9.93;43.64
63321;BME280;49449;48.800;9.534;2022-12-24T09:44:35;98561.84;;;9.69;43.26
63321;BME280;49449;48.800;9.534;2022-12-24T09:47:10;98564.56;;;9.81;43.74
63321;BME280;49449;48.800;9.534;2022-12-24T09:49:44;98566.38;;;9.99;43.51
63321;BME280;49449;48.800;9.534;2022-12-24T09:52:26;98578.25;;;10.38;42.37
63321;BME280;49449;48.800;9.534;2022-12-24T09:55:03;98583.25;;;12.92;38.16
63321;BME280;49449;48.800;9.534;2022-12-24T09:57:34;98574.94;;;14.92;35.46
63321;BME280;49449;48.800;9.534;2022-12-24T10:00:04;98570.25;;;16.20;33.06
63321;BME280;49449;48.800;9.534;2022-12-24T10:02:32;98560.56;;;17.48;31.08
63321;BME280;49449;48.800;9.534;2022-12-24T10:04:59;98564.16;;;17.93;31.13
63321;BME280;49449;48.800;9.534;2022-12-24T10:07:36;98564.97;;;17.88;31.86
63321;BME280;49449;48.800;9.534;2022-12-24T10:10:18;98562.63;;;19.48;29.55
63321;BME280;49449;48.800;9.534;2022-12-24T10:12:55;98561.22;;;20.37;26.91
63321;BME280;49449;48.800;9.534;2022-12-24T10:15:30;98555.19;;;21.11;26.54
63321;BME280;49449;48.800;9.534;2022-12-24T10:18:11;98549.28;;;21.51;23.74
63321;BME280;49449;48.800;9.534;2022-12-24T10:20:47;98558.53;;;21.86;24.30
63321;BME280;49449;48.800;9.534;2022-12-24T10:23:23;98543.63;;;22.03;22.22
63321;BME280;49449;48.800;9.534;2022-12-24T10:26:03;98554.06;;;21.12;23.41
63321;BME280;49449;48.800;9.534;2022-12-24T10:28:40;98553.97;;;19.33;26.76
63321;BME280;49449;48.800;9.534;2022-12-24T10:31:09;98548.94;;;19.26;25.56
63321;BME280;49449;48.800;9.534;2022-12-24T10:33:41;98557.34;;;19.19;26.05
63321;BME280;49449;48.800;9.534;2022-12-24T10:36:14;98552.63;;;19.54;26.17
63321;BME280;49449;48.800;9.534;2022-12-24T10:38:45;98558.38;;;18.60;26.25
63321;BME280;49449;48.800;9.534;2022-12-24T10:41:13;98556.78;;;17.69;27.58
63321;BME280;49449;48.800;9.534;2022-12-24T10:43:43;98568.72;;;16.86;29.54
63321;BME280;49449;48.800;9.534;2022-12-24T10:46:16;98568.69;;;15.13;31.22
63321;BME280;49449;48.800;9.534;2022-12-24T10:48:49;98566.31;;;14.74;32.09
63321;BME280;49449;48.800;9.534;2022-12-24T10:51:21;98561.31;;;14.83;33.01
63321;BME280;49449;48.800;9.534;2022-12-24T10:53:59;98553.13;;;14.95;32.47
63321;BME280;49449;48.800;9.534;2022-12-24T10:56:28;98557.84;;;14.50;32.85
63321;BME280;49449;48.800;9.534;2022-12-24T10:58:56;98567.56;;;14.12;34.17
63321;BME280;49449;48.800;9.534;2022-12-24T11:01:42;98566.50;;;13.86;35.07
63321;BME280;49449;48.800;9.534;2022-12-24T11:04:16;98563.97;;;13.35;35.15
63321;BME280;49449;48.800;9.534;2022-12-24T11:06:52;98562.66;;;13.16;35.40
63321;BME280;49449;48.800;9.534;2022-12-24T11:09:23;98566.28;;;12.93;36.08
63321;BME280;49449;48.800;9.534;2022-12-24T11:11:51;98571.81;;;12.57;36.17
63321;BME280;49449;48.800;9.534;2022-12-24T11:14:20;98563.69;;;12.47;36.67
63321;BME280;49449;48.800;9.534;2022-12-24T11:16:50;98568.53;;;12.21;36.87
63321;BME280;49449;48.800;9.534;2022-12-24T11:19:19;98571.41;;;12.20;37.04
63321;BME280;49449;48.800;9.534;2022-12-24T11:21:48;98568.09;;;11.84;37.94
63321;BME280;49449;48.800;9.534;2022-12-24T11:24:28;98571.75;;;11.94;37.40
63321;BME280;49449;48.800;9.534;2022-12-24T11:27:23;98571.97;;;11.81;38.11
63321;BME280;49449;48.800;9.534;2022-12-24T11:29:51;98574.03;;;11.79;38.17
63321;BME280;49449;48.800;9.534;2022-12-24T11:32:21;98567.16;;;11.78;38.09
63321;BME280;49449;48.800;9.534;2022-12-24T11:34:48;98570.28;;;11.75;38.26
63321;BME280;49449;48.800;9.534;2022-12-24T11:37:19;98569.31;;;11.17;39.23
63321;BME280;49449;48.800;9.534;2022-12-24T11:39:50;98565.38;;;11.31;38.87
63321;BME280;49449;48.800;9.534;2022-12-24T11:42:24;98568.03;;;10.96;39.44
63321;BME280;49449;48.800;9.534;2022-12-24T11:44:54;98574.25;;;11.13;39.88
63321;BME280;49449;48.800;9.534;2022-12-24T11:47:34;98564.50;;;11.02;39.64
63321;BME280;49449;48.800;9.534;2022-12-24T11:50:25;98560.22;;;11.01;39.95
63321;BME280;49449;48.800;9.534;2022-12-24T11:53:03;98558.16;;;11.03;39.61
63321;BME280;49449;48.800;9.534;2022-12-24T11:55:41;98553.00;;;11.20;39.37
63321;BME280;49449;48.800;9.534;2022-12-24T11:58:17;98554.50;;;11.04;39.69
63321;BME280;49449;48.800;9.534;2022-12-24T12:00:49;98559.88;;;10.97;39.96
63321;BME280;49449;48.800;9.534;2022-12-24T12:03:26;98556.34;;;11.04;41.67
63321;BME280;49449;48.800;9.534;2022-12-24T12:05:58;98559.53;;;11.29;39.91
63321;BME280;49449;48.800;9.534;2022-12-24T12:08:28;98568.16;;;11.13;39.34
63321;BME280;49449;48.800;9.534;2022-12-24T12:10:58;98561.50;;;11.10;39.71
63321;BME280;49449;48.800;9.534;2022-12-24T12:13:28;98560.13;;;11.08;40.08
63321;BME280;49449;48.800;9.534;2022-12-24T12:16:09;98552.72;;;11.33;39.57
63321;BME280;49449;48.800;9.534;2022-12-24T12:18:45;98551.66;;;11.58;39.24
63321;BME280;49449;48.800;9.534;2022-12-24T12:21:17;98537.81;;;11.80;38.81
63321;BME280;49449;48.800;9.534;2022-12-24T12:23:48;98542.47;;;12.01;38.00
63321;BME280;49449;48.800;9.534;2022-12-24T12:26:23;98542.84;;;11.93;38.76
63321;BME280;49449;48.800;9.534;2022-12-24T12:28:54;98546.53;;;12.21;38.94
63321;BME280;49449;48.800;9.534;2022-12-24T12:31:27;98549.28;;;12.43;38.60
63321;BME280;49449;48.800;9.534;2022-12-24T12:33:59;98551.56;;;12.51;38.48
63321;BME280;49449;48.800;9.534;2022-12-24T12:36:34;98550.34;;;12.59;38.24
63321;BME280;49449;48.800;9.534;2022-12-24T12:39:03;98546.34;;;12.73;38.85
63321;BME280;49449;48.800;9.534;2022-12-24T12:41:45;98555.72;;;12.64;38.42
63321;BME280;49449;48.800;9.534;2022-12-24T12:44:28;98555.63;;;12.59;38.08
63321;BME280;49449;48.800;9.534;2022-12-24T12:47:09;98563.53;;;12.54;38.11
63321;BME280;49449;48.800;9.534;2022-12-24T12:49:49;98566.75;;;12.56;38.40
63321;BME280;49449;48.800;9.534;2022-12-24T12:52:31;98574.19;;;12.59;38.79
63321;BME280;49449;48.800;9.534;2022-12-24T12:55:17;98579.81;;;12.62;39.72
63321;BME280;49449;48.800;9.534;2022-12-24T12:57:53;98586.66;;;12.58;39.78
63321;BME280;49449;48.800;9.534;2022-12-24T13:00:23;98584.78;;;12.59;39.94
63321;BME280;49449;48.800;9.534;2022-12-24T13:03:21;98583.34;;;12.51;40.59
63321;BME280;49449;48.800;9.534;2022-12-24T13:06:12;98579.34;;;12.48;40.78
63321;BME280;49449;48.800;9.534;2022-12-24T13:09:05;98580.84;;;12.44;40.73
63321;BME280;49449;48.800;9.534;2022-12-24T13:11:50;98577.31;;;12.39;41.36
63321;BME280;49449;48.800;9.534;2022-12-24T13:14:34;98590.69;;;12.32;41.11
63321;BME280;49449;48.800;9.534;2022-12-24T13:17:18;98595.09;;;12.26;41.17
63321;BME280;49449;48.800;9.534;2022-12-24T13:20:12;98583.63;;;12.21;41.18
63321;BME280;49449;48.800;9.534;2022-12-24T13:22:47;98587.84;;;12.22;41.24
63321;BME280;49449;48.800;9.534;2022-12-24T13:25:20;98585.47;;;12.20;41.22
63321;BME280;49449;48.800;9.534;2022-12-24T13:27:49;98586.97;;;12.16;41.30
63321;BME280;49449;48.800;9.534;2022-12-24T13:30:34;98594.00;;;12.10;41.36
63321;BME280;49449;48.800;9.534;2022-12-24T13:33:03;98593.69;;;12.07;41.38